Time;durP1;ratioP1;P1;durP2;ratioP2;P2;SDS_P1;SDS_P2;PMS_P1;PMS_P2;Temp;Humidity;BMP_temperature;BMP_pressure;BME280_temperature;BME280_humidity;BME280_pressure;Samples;Min_cycle;Max_cycle;Signal;HPM_P1;HPM_P2
2024/02/17 00:00:08;;;;;;;5.57;2.60;;;;;;;11.28;54.45;93240.34;2065046;69;20141;-78
2024/02/17 00:02:34;;;;;;;7.90;3.90;;;;;;;11.35;54.58;93247.84;2065584;69;20517;-77
2024/02/17 00:05:01;;;;;;;8.88;4.00;;;;;;;11.38;54.46;93243.09;2064937;69;20151;-78
2024/02/17 00:07:26;;;;;;;9.05;2.50;;;;;;;11.37;54.76;93241.63;2065640;69;20164;-78
2024/02/17 00:09:52;;;;;;;5.43;2.40;;;;;;;11.28;56.04;93243.16;2065691;69;20153;-78
2024/02/17 00:12:17;;;;;;;4.60;2.40;;;;;;;11.34;55.02;93242.84;2065563;69;20178;-77
2024/02/17 00:14:43;;;;;;;4.93;2.35;;;;;;;10.90;56.19;93253.31;2065560;69;20144;-77
2024/02/17 00:17:09;;;;;;;4.13;2.22;;;;;;;11.11;56.16;93249.78;2065011;69;20159;-78
2024/02/17 00:19:34;;;;;;;5.00;2.55;;;;;;;11.06;56.23;93259.31;2065420;69;20494;-75
2024/02/17 00:22:00;;;;;;;5.28;2.50;;;;;;;11.07;56.75;93257.97;2065533;69;20161;-75
2024/02/17 00:24:26;;;;;;;3.50;2.40;;;;;;;11.08;56.69;93255.88;2065644;69;20151;-76
2024/02/17 00:26:51;;;;;;;8.57;2.60;;;;;;;10.41;59.35;93266.09;2065510;69;20216;-76
2024/02/17 00:29:18;;;;;;;5.40;2.25;;;;;;;10.75;57.75;93252.94;2065553;69;20524;-77
2024/02/17 00:31:46;;;;;;;6.15;2.50;;;;;;;10.90;57.10;93261.00;2065578;69;20240;-76
2024/02/17 00:34:13;;;;;;;5.20;2.50;;;;;;;10.72;57.58;93263.34;2065564;69;20149;-77
2024/02/17 00:36:38;;;;;;;8.93;2.38;;;;;;;10.69;57.58;93265.25;2067437;69;20155;-78
2024/02/17 00:39:05;;;;;;;5.93;2.20;;;;;;;10.78;57.82;93266.56;2067404;69;20601;-77
2024/02/17 00:41:31;;;;;;;7.85;2.60;;;;;;;10.80;58.17;93271.59;2065712;69;20152;-77
2024/02/17 00:47:43;;;;;;;5.35;2.55;;;;;;;10.63;58.85;93284.56;2065500;69;20614;-77
2024/02/17 00:50:11;;;;;;;6.70;2.60;;;;;;;10.64;58.61;93271.97;2065754;69;20136;-76
2024/02/17 00:52:36;;;;;;;4.60;2.67;;;;;;;10.69;58.71;93273.72;2065631;69;20153;-78
2024/02/17 00:55:02;;;;;;;8.85;3.00;;;;;;;10.71;59.05;93286.44;2065778;69;20504;-78
2024/02/17 01:01:15;;;;;;;6.32;2.50;;;;;;;10.79;58.78;93289.84;2065488;69;20725;-77
2024/02/17 01:03:41;;;;;;;7.63;2.63;;;;;;;10.82;58.57;93294.28;2065421;69;20140;-77
2024/02/17 01:06:09;;;;;;;6.93;3.10;;;;;;;10.71;58.61;93295.63;2064938;69;20168;-76
2024/02/17 01:08:35;;;;;;;9.57;3.28;;;;;;;10.55;59.33;93298.06;2065525;69;20169;-77
2024/02/17 01:11:01;;;;;;;8.52;3.58;;;;;;;10.58;59.33;93298.94;2065498;69;20175;-76
2024/02/17 01:13:26;;;;;;;6.53;3.22;;;;;;;10.59;59.41;93303.25;2065505;69;20156;-77
2024/02/17 01:15:52;;;;;;;7.43;3.03;;;;;;;10.60;60.41;93299.09;2064971;69;20148;-77
2024/02/17 01:18:18;;;;;;;11.45;3.53;;;;;;;10.62;59.74;93302.03;2065322;69;20167;-76
2024/02/17 01:20:44;;;;;;;9.18;3.28;;;;;;;10.64;59.65;93296.56;2065484;69;20608;-77
2024/02/17 01:23:09;;;;;;;9.00;3.67;;;;;;;10.67;60.28;93304.56;2065537;69;20545;-77
2024/02/17 01:25:35;;;;;;;7.95;3.55;;;;;;;10.43;60.32;93308.47;2065496;69;20137;-77
2024/02/17 01:28:00;;;;;;;12.52;3.60;;;;;;;10.57;59.39;93308.72;2065384;69;20161;-77
2024/02/17 01:30:26;;;;;;;8.02;3.00;;;;;;;10.55;59.61;93297.34;2064860;69;20152;-77
2024/02/17 01:32:51;;;;;;;5.40;2.70;;;;;;;10.67;59.69;93304.56;2065343;69;20141;-78
2024/02/17 01:35:17;;;;;;;11.18;3.17;;;;;;;10.64;59.33;93305.75;2065525;69;20156;-77
2024/02/17 01:37:43;;;;;;;6.07;2.80;;;;;;;10.65;59.60;93310.03;2065375;69;20125;-77
2024/02/17 01:40:09;;;;;;;7.65;3.15;;;;;;;10.65;60.17;93312.84;2065554;69;20251;-78
2024/02/17 01:42:35;;;;;;;6.93;3.20;;;;;;;10.66;60.16;93307.94;2065581;69;20224;-78
2024/02/17 01:45:03;;;;;;;7.00;3.00;;;;;;;10.69;60.57;93309.59;2065783;69;20140;-77
2024/02/17 01:47:29;;;;;;;6.57;2.95;;;;;;;10.79;60.61;93307.47;2065405;69;20137;-77
2024/02/17 01:53:42;;;;;;;5.30;2.45;;;;;;;10.65;60.39;93310.03;2065458;69;20191;-78
2024/02/17 01:56:09;;;;;;;4.25;2.50;;;;;;;10.56;61.04;93313.63;2065601;69;20152;-78
2024/02/17 01:58:36;;;;;;;6.13;3.05;;;;;;;10.47;61.22;93313.66;2065413;69;20182;-77
2024/02/17 02:04:49;;;;;;;8.38;3.00;;;;;;;10.40;61.79;93313.22;2065301;69;20280;-77
2024/02/17 02:07:15;;;;;;;7.35;2.78;;;;;;;10.38;61.55;93321.50;2065345;69;20241;-76
2024/02/17 02:09:41;;;;;;;9.40;2.72;;;;;;;10.53;61.00;93322.50;2065272;69;20354;-76
2024/02/17 02:12:08;;;;;;;6.35;2.90;;;;;;;10.63;60.47;93317.63;2065447;69;20157;-76
2024/02/17 02:14:34;;;;;;;5.68;2.65;;;;;;;10.63;61.15;93326.06;2062251;69;20156;-76
2024/02/17 02:17:00;;;;;;;5.75;2.58;;;;;;;10.28;61.74;93317.97;2066180;69;20149;-76
2024/02/17 02:19:26;;;;;;;4.30;2.75;;;;;;;10.49;61.49;93317.34;2068246;69;20149;-76
2024/02/17 02:21:52;;;;;;;4.82;2.80;;;;;;;10.32;61.99;93314.72;2065440;69;20155;-77
2024/02/17 02:24:17;;;;;;;5.43;2.88;;;;;;;10.43;60.91;93308.47;2067507;69;20168;-76
2024/02/17 02:26:43;;;;;;;5.38;2.63;;;;;;;10.59;60.35;93317.31;2067451;69;20353;-79
2024/02/17 02:29:10;;;;;;;5.45;2.90;;;;;;;10.44;62.00;93315.56;2065346;69;20172;-78
2024/02/17 02:31:36;;;;;;;4.78;2.60;;;;;;;10.53;61.60;93323.25;2064822;69;20241;-76
2024/02/17 02:34:02;;;;;;;7.18;2.75;;;;;;;10.55;61.17;93328.31;2065162;69;20485;-77
2024/02/17 02:36:27;;;;;;;7.15;2.63;;;;;;;10.55;61.48;93326.22;2065202;69;20200;-78
2024/02/17 02:38:55;;;;;;;5.82;2.65;;;;;;;10.49;61.95;93325.03;2065169;69;20164;-77
2024/02/17 02:41:20;;;;;;;8.65;2.65;;;;;;;10.52;61.45;93323.84;2065170;69;20145;-77
2024/02/17 02:43:47;;;;;;;8.30;2.72;;;;;;;10.51;61.25;93331.56;2064713;69;20212;-78
2024/02/17 02:46:13;;;;;;;6.10;2.78;;;;;;;10.57;61.45;93336.88;2065207;69;20609;-78
2024/02/17 02:48:39;;;;;;;4.95;2.60;;;;;;;10.52;62.04;93335.13;2065139;69;20211;-76
2024/02/17 02:51:04;;;;;;;11.52;2.72;;;;;;;10.52;62.84;93341.47;2065160;69;20156;-77
2024/02/17 02:53:30;;;;;;;4.40;2.63;;;;;;;10.50;62.30;93338.53;2065400;69;20152;-77
2024/02/17 02:55:56;;;;;;;6.03;2.67;;;;;;;10.46;61.60;93329.78;2065216;69;20592;-77
2024/02/17 02:58:22;;;;;;;5.00;2.67;;;;;;;10.39;62.66;93336.31;2065158;69;20140;-78
2024/02/17 03:00:49;;;;;;;6.47;2.65;;;;;;;10.43;62.70;93340.16;2065133;69;20160;-77
2024/02/17 03:03:15;;;;;;;8.43;3.00;;;;;;;10.31;62.74;93344.94;2064806;69;20154;-78
2024/02/17 03:05:40;;;;;;;5.13;2.53;;;;;;;10.47;63.20;93344.59;2065111;69;20619;-76
2024/02/17 03:08:06;;;;;;;9.50;2.72;;;;;;;10.39;63.25;93339.88;2065172;69;20149;-79
2024/02/17 03:10:32;;;;;;;9.88;3.20;;;;;;;10.30;63.83;93345.50;2065064;69;20156;-79
2024/02/17 03:13:01;;;;;;;6.03;2.80;;;;;;;10.12;64.02;93345.63;2065094;69;20140;-77
2024/02/17 03:15:26;;;;;;;7.40;2.90;;;;;;;10.32;62.60;93351.31;2064499;69;20145;-77
2024/02/17 03:21:42;;;;;;;4.07;2.67;;;;;;;10.34;63.88;93352.16;2065342;69;20127;-77
2024/02/17 03:24:08;;;;;;;4.75;2.60;;;;;;;10.32;64.33;93368.19;2065351;69;20169;-76
2024/02/17 03:26:35;;;;;;;5.57;2.72;;;;;;;10.37;63.85;93370.69;2065574;69;20144;-77
2024/02/17 03:29:01;;;;;;;5.20;2.90;;;;;;;10.33;63.70;93364.03;2065100;69;20235;-77
2024/02/17 03:31:26;;;;;;;6.72;2.90;;;;;;;10.34;63.36;93371.88;2065673;69;20612;-77
2024/02/17 03:37:39;;;;;;;7.25;2.90;;;;;;;10.32;63.62;93382.25;2065567;69;20132;-76
2024/02/17 03:40:08;;;;;;;6.93;2.60;;;;;;;10.45;63.31;93384.63;2065329;69;20153;-74
2024/02/17 03:42:34;;;;;;;6.95;2.92;;;;;;;10.37;64.50;93381.22;2064738;69;20144;-76
2024/02/17 03:45:00;;;;;;;6.68;2.80;;;;;;;10.14;65.57;93390.09;2064948;69;20501;-77
2024/02/17 03:47:26;;;;;;;7.75;2.88;;;;;;;10.26;65.11;93398.69;2065043;69;20244;-75
2024/02/17 03:49:51;;;;;;;5.53;2.83;;;;;;;10.20;65.53;93396.16;2065517;69;20152;-74
2024/02/17 03:52:17;;;;;;;6.47;2.90;;;;;;;10.15;65.22;93402.81;2065295;69;20659;-75
2024/02/17 03:54:43;;;;;;;6.80;2.50;;;;;;;10.18;65.88;93401.63;2065390;69;20148;-75
2024/02/17 03:57:08;;;;;;;5.70;2.53;;;;;;;10.18;65.56;93404.44;2065109;69;20526;-74
2024/02/17 03:59:34;;;;;;;9.75;2.80;;;;;;;10.15;65.83;93411.25;2064987;69;20147;-74
2024/02/17 04:02:00;;;;;;;5.22;2.65;;;;;;;10.07;65.88;93402.22;2065122;69;20257;-74
2024/02/17 04:04:26;;;;;;;4.90;2.88;;;;;;;10.21;65.56;93406.06;2065166;69;20158;-76
2024/02/17 04:06:51;;;;;;;6.03;2.95;;;;;;;10.29;65.91;93408.75;2065440;69;20144;-76
2024/02/17 04:09:17;;;;;;;5.65;2.85;;;;;;;10.27;65.42;93409.38;2065464;69;20153;-76
2024/02/17 04:11:42;;;;;;;7.25;2.80;;;;;;;10.26;66.51;93415.56;2065447;69;20605;-76
2024/02/17 04:14:09;;;;;;;5.50;2.67;;;;;;;10.22;65.93;93415.25;2065415;69;20140;-75
2024/02/17 04:16:34;;;;;;;8.85;3.22;;;;;;;10.25;66.18;93426.09;2065220;69;20156;-76
2024/02/17 04:19:01;;;;;;;5.22;2.88;;;;;;;10.34;65.02;93433.06;2064840;69;20565;-76
2024/02/17 04:21:27;;;;;;;5.80;2.80;;;;;;;10.39;65.38;93440.47;2065410;69;20250;-77
2024/02/17 04:23:52;;;;;;;6.30;3.13;;;;;;;10.31;66.45;93440.63;2065384;69;20270;-76
2024/02/17 04:26:18;;;;;;;6.13;2.50;;;;;;;10.32;66.28;93442.09;2065130;69;20609;-74
2024/02/17 04:28:44;;;;;;;6.82;2.88;;;;;;;10.35;66.32;93449.34;2065338;69;20157;-74
2024/02/17 04:31:09;;;;;;;6.95;3.10;;;;;;;10.28;65.88;93455.88;2065368;69;20152;-76
2024/02/17 04:33:39;;;;;;;8.20;2.60;;;;;;;10.23;66.83;93454.06;2065339;69;20272;-74
2024/02/17 04:36:08;;;;;;;5.22;2.75;;;;;;;10.22;67.11;93461.03;2065453;69;20583;-75
2024/02/17 04:38:34;;;;;;;5.78;3.20;;;;;;;10.17;67.73;93454.34;2065266;69;20159;-74
2024/02/17 04:41:01;;;;;;;5.35;2.90;;;;;;;10.22;68.69;93461.03;2065344;69;20153;-76
2024/02/17 04:43:26;;;;;;;5.68;2.90;;;;;;;10.09;67.21;93462.19;2065168;69;20160;-77
2024/02/17 04:45:52;;;;;;;6.43;2.53;;;;;;;10.17;66.89;93459.22;2065443;69;20153;-76
2024/02/17 04:48:18;;;;;;;5.53;2.80;;;;;;;10.21;67.99;93470.78;2065353;69;20188;-77
2024/02/17 04:54:31;;;;;;;6.20;3.15;;;;;;;10.22;68.39;93471.50;2065122;69;20212;-76
2024/02/17 04:56:56;;;;;;;5.18;2.75;;;;;;;10.19;69.15;93474.19;2065334;69;20244;-76
2024/02/17 04:59:22;;;;;;;9.15;3.28;;;;;;;10.15;69.53;93481.59;2065192;69;20604;-76
2024/02/17 05:01:47;;;;;;;4.43;2.60;;;;;;;9.97;69.86;93471.78;2064951;69;20183;-77
2024/02/17 05:04:13;;;;;;;5.43;3.10;;;;;;;10.11;69.34;93476.41;2064928;69;20608;-75
2024/02/17 05:10:27;;;;;;;8.00;3.13;;;;;;;10.03;69.51;93486.28;2065362;69;20208;-77
2024/02/17 05:12:52;;;;;;;8.27;3.10;;;;;;;9.90;69.82;93491.03;2064950;69;20129;-77
2024/02/17 05:15:19;;;;;;;5.90;3.00;;;;;;;10.01;69.13;93497.41;2064589;69;20702;-77
2024/02/17 05:17:45;;;;;;;7.70;2.55;;;;;;;9.95;70.00;93500.50;2065104;69;20172;-78
2024/02/17 05:20:11;;;;;;;8.48;4.82;;;;;;;10.00;69.87;93501.56;2065117;69;20179;-77
2024/02/17 05:22:38;;;;;;;6.90;3.15;;;;;;;9.99;70.68;93500.81;2065122;69;20149;-77
2024/02/17 05:25:04;;;;;;;6.28;2.65;;;;;;;9.74;71.69;93508.72;2065376;69;20137;-77
2024/02/17 05:27:30;;;;;;;4.07;2.58;;;;;;;9.95;70.60;93513.84;2065339;69;20141;-77
2024/02/17 05:29:56;;;;;;;6.70;3.10;;;;;;;10.08;70.27;93514.16;2065436;69;20211;-75
2024/02/17 05:32:22;;;;;;;5.60;3.42;;;;;;;10.07;70.15;93518.28;2065332;69;20528;-77
2024/02/17 05:34:47;;;;;;;10.70;3.00;;;;;;;10.05;70.74;93523.78;2065073;69;20164;-76
2024/02/17 05:37:13;;;;;;;7.63;2.97;;;;;;;10.09;70.44;93531.78;2065202;69;20145;-76
2024/02/17 05:39:39;;;;;;;4.75;2.80;;;;;;;10.11;71.20;93529.13;2065220;69;20136;-76
2024/02/17 05:42:06;;;;;;;5.00;3.05;;;;;;;10.13;71.28;93532.09;2064919;69;20224;-76
2024/02/17 05:44:32;;;;;;;9.88;3.20;;;;;;;10.07;70.37;93537.25;2064185;69;20157;-75
2024/02/17 05:46:58;;;;;;;7.57;3.65;;;;;;;10.03;69.95;93539.75;2065277;69;20171;-75
2024/02/17 05:49:25;;;;;;;17.02;5.20;;;;;;;10.05;69.57;93540.66;2065038;69;20148;-75
2024/02/17 05:55:39;;;;;;;12.80;6.30;;;;;;;9.95;71.73;93550.41;2065206;69;20171;-74
2024/02/17 05:58:04;;;;;;;14.05;5.32;;;;;;;9.95;72.07;93547.59;2064915;69;20173;-76
2024/02/17 06:00:30;;;;;;;20.38;6.88;;;;;;;9.54;74.61;93553.63;2065252;69;20168;-76
2024/02/17 06:02:56;;;;;;;18.73;6.68;;;;;;;9.74;73.41;93559.34;2065411;69;20662;-77
2024/02/17 06:05:22;;;;;;;13.43;6.32;;;;;;;9.77;73.45;93567.34;2065644;69;20206;-77
2024/02/17 06:07:48;;;;;;;16.13;6.32;;;;;;;9.70;73.41;93551.31;2065340;69;20167;-76
2024/02/17 06:10:13;;;;;;;13.25;6.45;;;;;;;9.78;73.42;93566.00;2064923;69;20211;-76
2024/02/17 06:12:39;;;;;;;20.88;9.55;;;;;;;9.72;73.97;93565.56;2065073;69;20615;-77
2024/02/17 06:15:05;;;;;;;11.65;6.15;;;;;;;9.79;74.05;93570.31;2065311;69;20157;-77
2024/02/17 06:17:33;;;;;;;7.00;3.00;;;;;;;9.84;73.82;93568.56;2065253;69;20652;-76
2024/02/17 06:22:42;;;;;;;7.93;2.50;;;;;;;9.97;72.78;93585.03;2065552;69;20607;-78
2024/02/17 06:25:08;;;;;;;4.13;2.13;;;;;;;9.89;73.72;93582.34;2065216;69;20156;-76
2024/02/17 06:27:34;;;;;;;5.13;2.47;;;;;;;9.92;72.74;93578.34;2065291;69;20532;-75
2024/02/17 06:29:59;;;;;;;3.67;2.40;;;;;;;9.98;74.00;93589.34;2065274;69;20153;-77
2024/02/17 06:32:25;;;;;;;22.20;11.25;;;;;;;9.91;73.10;93587.38;2065343;69;20152;-76
2024/02/17 06:34:51;;;;;;;15.48;7.35;;;;;;;9.68;74.86;93593.34;2065141;69;20233;-78
2024/02/17 06:37:16;;;;;;;13.85;7.13;;;;;;;9.56;75.17;93595.94;2065491;69;20207;-75
2024/02/17 06:39:42;;;;;;;17.30;8.93;;;;;;;9.72;74.41;93581.69;2065353;69;20220;-77
2024/02/17 06:42:07;;;;;;;13.82;7.13;;;;;;;9.76;73.74;93591.19;2065174;69;20298;-78
2024/02/17 06:44:33;;;;;;;6.88;4.00;;;;;;;9.54;74.31;93604.22;2065250;69;20164;-78
2024/02/17 06:46:58;;;;;;;11.85;4.82;;;;;;;9.28;76.39;93596.50;2065433;69;20184;-75
2024/02/17 06:49:25;;;;;;;10.52;5.47;;;;;;;9.32;76.21;93602.47;2064576;69;20153;-78
2024/02/17 06:51:50;;;;;;;13.18;6.20;;;;;;;9.40;76.16;93612.28;2065252;69;20587;-76
2024/02/17 06:54:16;;;;;;;14.23;5.35;;;;;;;9.71;75.24;93605.47;2065303;69;20141;-76
2024/02/17 06:56:41;;;;;;;7.85;4.72;;;;;;;9.90;74.02;93614.78;2065567;69;20511;-75
2024/02/17 06:59:07;;;;;;;8.82;5.03;;;;;;;9.85;74.00;93612.22;2065609;69;20148;-76
2024/02/17 07:01:32;;;;;;;10.20;4.03;;;;;;;10.02;74.29;93622.66;2065536;69;20152;-76
2024/02/17 07:03:58;;;;;;;14.00;4.32;;;;;;;9.89;74.21;93624.53;2065511;69;20179;-76
2024/02/17 07:06:23;;;;;;;8.32;3.80;;;;;;;9.79;74.87;93631.44;2065488;69;20141;-75
2024/02/17 07:08:49;;;;;;;9.15;4.13;;;;;;;9.97;73.89;93635.66;2065605;69;20607;-75
2024/02/17 07:11:15;;;;;;;7.70;3.63;;;;;;;10.07;73.78;93628.00;2065458;69;20149;-74
2024/02/17 07:13:43;;;;;;;10.25;3.97;;;;;;;10.03;74.13;93635.41;2065437;69;20145;-75
2024/02/17 07:16:11;;;;;;;8.18;3.70;;;;;;;10.11;74.18;93642.41;2065762;69;20242;-76
2024/02/17 07:18:42;;;;;;;6.00;3.28;;;;;;;10.16;73.29;93640.63;2065649;69;20228;-76
2024/02/17 07:21:07;;;;;;;7.97;3.42;;;;;;;10.19;72.44;93647.91;2065675;69;20252;-76
2024/02/17 07:23:33;;;;;;;25.60;10.23;;;;;;;10.08;73.97;93646.41;2065673;69;20217;-75
2024/02/17 07:26:00;;;;;;;32.53;11.90;;;;;;;10.28;72.87;93655.69;2065774;69;20151;-75
2024/02/17 07:28:25;;;;;;;38.38;17.35;;;;;;;10.17;73.82;93650.56;2065636;69;20148;-75
2024/02/17 07:30:51;;;;;;;23.55;11.18;;;;;;;10.31;73.55;93665.00;2065760;69;20141;-75
2024/02/17 07:33:16;;;;;;;18.17;8.68;;;;;;;10.35;72.95;93665.31;2065402;69;20165;-75
2024/02/17 07:35:44;;;;;;;16.50;7.70;;;;;;;10.33;73.76;93673.63;2065609;69;20159;-75
2024/02/17 07:38:11;;;;;;;25.33;12.40;;;;;;;9.94;75.28;93676.22;2065762;69;20153;-76
2024/02/17 07:40:39;;;;;;;15.45;8.70;;;;;;;10.01;75.77;93680.25;2065388;69;20640;-76
2024/02/17 07:43:05;;;;;;;15.68;8.00;;;;;;;10.21;74.73;93681.84;2065250;69;20490;-75
2024/02/17 07:45:31;;;;;;;15.95;8.13;;;;;;;10.33;74.15;93673.63;2065652;69;20674;-78
2024/02/17 07:47:57;;;;;;;16.40;8.25;;;;;;;10.50;74.22;93684.81;2065429;69;20159;-75
2024/02/17 07:50:22;;;;;;;13.90;8.40;;;;;;;10.40;75.15;93681.19;2065450;69;20613;-75
2024/02/17 07:52:49;;;;;;;13.70;6.07;;;;;;;10.43;75.20;93685.66;2065441;69;20183;-77
2024/02/17 07:59:03;;;;;;;14.90;7.78;;;;;;;10.79;73.98;93681.34;2065550;69;20155;-76
2024/02/17 08:01:29;;;;;;;9.70;4.18;;;;;;;10.89;73.39;93696.91;2065669;69;20259;-78
2024/02/17 08:03:55;;;;;;;8.93;3.72;;;;;;;10.85;73.62;93687.41;2065529;69;20656;-76
2024/02/17 08:06:21;;;;;;;11.15;5.63;;;;;;;10.64;74.76;93677.44;2065159;69;20263;-75
2024/02/17 08:08:47;;;;;;;10.23;6.22;;;;;;;10.48;75.57;93681.81;2065030;69;20130;-77
2024/02/17 08:11:13;;;;;;;7.03;4.45;;;;;;;10.52;74.88;93682.13;2065570;69;20144;-75
2024/02/17 08:13:39;;;;;;;8.25;4.72;;;;;;;10.64;74.71;93680.25;2065578;69;20155;-78
2024/02/17 08:16:05;;;;;;;8.18;3.88;;;;;;;10.91;73.27;93694.25;2065700;69;20153;-75
2024/02/17 08:18:31;;;;;;;6.55;4.05;;;;;;;11.20;72.70;93690.75;2065526;69;20160;-78
2024/02/17 08:24:44;;;;;;;10.60;4.30;;;;;;;11.16;70.98;93688.38;2065619;69;20199;-78
2024/02/17 08:27:12;;;;;;;7.20;4.05;;;;;;;11.28;70.30;93699.06;2065562;69;20600;-76
2024/02/17 08:29:39;;;;;;;11.02;3.95;;;;;;;11.79;68.54;93694.31;2065472;69;20201;-78
2024/02/17 08:32:05;;;;;;;4.65;2.70;;;;;;;12.15;67.56;93696.94;2065202;69;20153;-77
2024/02/17 08:34:31;;;;;;;6.97;3.33;;;;;;;11.98;67.68;93702.75;2065350;69;20132;-78
2024/02/17 08:36:57;;;;;;;9.02;3.78;;;;;;;11.94;67.51;93702.47;2065521;69;20145;-76
2024/02/17 08:39:22;;;;;;;4.82;3.33;;;;;;;12.10;68.57;93700.81;2065547;69;20152;-76
2024/02/17 08:41:48;;;;;;;7.07;3.72;;;;;;;12.00;68.26;93704.97;2065526;69;20224;-76
2024/02/17 08:44:13;;;;;;;6.57;3.50;;;;;;;12.40;66.48;93701.47;2065464;69;20148;-78
2024/02/17 08:46:39;;;;;;;8.45;4.18;;;;;;;12.47;66.76;93703.38;2065746;69;20581;-78
2024/02/17 08:49:05;;;;;;;8.75;3.97;;;;;;;12.28;67.46;93703.44;2065573;69;20141;-77
2024/02/17 08:51:30;;;;;;;7.63;4.50;;;;;;;11.55;72.54;93707.38;2065517;69;20137;-79
2024/02/17 08:53:57;;;;;;;7.10;3.80;;;;;;;11.59;72.53;93711.25;2065652;69;20158;-77
2024/02/17 08:56:24;;;;;;;11.98;5.38;;;;;;;11.98;71.75;93713.31;2064944;69;20147;-78
2024/02/17 08:58:50;;;;;;;8.15;4.63;;;;;;;12.25;71.00;93713.13;2065498;69;20145;-78
2024/02/17 09:01:15;;;;;;;8.68;5.07;;;;;;;12.09;71.20;93724.72;2065588;69;20335;-78
2024/02/17 09:03:44;;;;;;;7.00;4.25;;;;;;;12.05;70.56;93727.28;2065422;69;20148;-78
2024/02/17 09:06:10;;;;;;;9.75;5.25;;;;;;;11.23;73.91;93733.94;2065580;69;20152;-77
2024/02/17 09:08:36;;;;;;;9.90;5.05;;;;;;;11.40;74.36;93736.59;2065498;69;20228;-76
2024/02/17 09:11:01;;;;;;;9.82;5.60;;;;;;;11.67;72.56;93739.28;2065483;69;20149;-77
2024/02/17 09:13:27;;;;;;;9.85;5.65;;;;;;;11.64;72.89;93734.84;2065394;69;20145;-77
2024/02/17 09:15:52;;;;;;;13.05;5.07;;;;;;;12.36;70.90;93741.44;2065500;69;20599;-78
2024/02/17 09:18:18;;;;;;;10.50;4.90;;;;;;;12.70;69.31;93739.56;2064976;69;20168;-77
2024/02/17 09:24:31;;;;;;;9.75;5.00;;;;;;;12.16;70.97;93743.59;2065370;69;20145;-78
2024/02/17 09:27:00;;;;;;;9.38;5.30;;;;;;;12.27;70.83;93742.22;2064607;69;20129;-78
2024/02/17 09:29:27;;;;;;;10.38;5.70;;;;;;;12.20;69.98;93749.53;2068753;69;20175;-78
2024/02/17 09:31:52;;;;;;;9.73;5.88;;;;;;;12.53;69.45;93751.06;2067955;69;20159;-78
2024/02/17 09:34:18;;;;;;;15.13;7.13;;;;;;;12.67;67.17;93755.63;2065396;69;20168;-78
2024/02/17 09:36:44;;;;;;;11.90;6.65;;;;;;;12.15;70.06;93758.31;2065434;69;20144;-78
2024/02/17 09:39:10;;;;;;;13.18;6.28;;;;;;;12.58;69.32;93764.88;2065372;69;20559;-78
2024/02/17 09:41:36;;;;;;;9.30;5.40;;;;;;;12.62;68.39;93759.53;2065123;69;20227;-77
2024/02/17 09:44:02;;;;;;;7.82;4.47;;;;;;;12.29;70.05;93762.13;2065288;69;20148;-78
2024/02/17 09:46:28;;;;;;;8.48;4.28;;;;;;;12.56;68.83;93764.75;2065268;69;20169;-78
2024/02/17 09:49:01;;;;;;;6.97;3.85;;;;;;;11.64;71.52;93769.44;2064493;69;20149;-77
2024/02/17 09:51:29;;;;;;;9.10;4.40;;;;;;;11.74;70.33;93768.69;2064718;69;20593;-78
2024/02/17 09:53:56;;;;;;;10.13;4.95;;;;;;;11.92;69.31;93770.81;2065324;69;20164;-78
2024/02/17 09:56:22;;;;;;;10.65;5.55;;;;;;;12.43;68.21;93774.44;2065319;69;20598;-78
2024/02/17 09:58:47;;;;;;;10.38;4.70;;;;;;;12.28;67.92;93780.44;2064749;69;20229;-78
2024/02/17 10:01:13;;;;;;;12.75;6.45;;;;;;;12.26;68.29;93779.53;2065299;69;20164;-78
2024/02/17 10:03:39;;;;;;;14.57;9.50;;;;;;;12.38;67.36;93778.31;2065245;69;20167;-78
2024/02/17 10:06:12;;;;;;;11.98;6.40;;;;;;;12.50;66.68;93792.53;2065298;69;20148;-78
2024/02/17 10:08:39;;;;;;;;;;;;;;;12.22;67.99;93805.38;2065429;69;20236;-78
2024/02/17 10:11:10;;;;;;;12.52;6.53;;;;;;;12.66;66.73;93799.34;2065363;69;20169;-78
2024/02/17 10:13:37;;;;;;;8.68;5.47;;;;;;;12.81;66.13;93801.09;2065297;69;20141;-79
2024/02/17 10:16:13;;;;;;;10.35;5.88;;;;;;;12.81;66.32;93803.91;2064780;69;20173;-77
2024/02/17 10:18:44;;;;;;;10.77;5.78;;;;;;;12.94;66.03;93797.78;2065205;69;20172;-77
2024/02/17 10:21:12;;;;;;;7.72;5.28;;;;;;;12.70;66.89;93802.47;2064930;69;20153;-78
2024/02/17 10:23:38;;;;;;;9.45;5.93;;;;;;;12.44;67.76;93806.25;2064625;69;20628;-78
2024/02/17 10:26:06;;;;;;;7.53;4.80;;;;;;;12.17;69.11;93812.06;2065194;69;20148;-78
2024/02/17 10:28:33;;;;;;;7.50;5.00;;;;;;;12.28;68.75;93810.72;2065275;69;20275;-77
2024/02/17 10:31:02;;;;;;;9.10;5.25;;;;;;;12.55;67.83;93819.75;2065072;69;20168;-78
2024/02/17 10:33:28;;;;;;;7.88;4.90;;;;;;;13.05;66.65;93810.50;2064564;69;20164;-78
2024/02/17 10:39:50;;;;;;;14.38;7.88;;;;;;;13.37;65.38;93812.03;2065248;69;20175;-78
2024/02/17 10:42:15;;;;;;;10.70;6.30;;;;;;;13.44;64.90;93813.94;2065115;69;20169;-78
2024/02/17 10:44:42;;;;;;;13.00;9.48;;;;;;;13.48;64.34;93816.31;2065208;69;20640;-79
2024/02/17 10:47:10;;;;;;;12.50;7.65;;;;;;;13.78;63.07;93802.72;2064604;69;20235;-79
2024/02/17 10:49:44;;;;;;;18.27;11.45;;;;;;;13.92;62.78;93809.31;2064571;69;20152;-79
2024/02/17 10:52:14;;;;;;;9.40;6.03;;;;;;;13.93;62.49;93811.56;2065080;69;20161;-78
2024/02/17 10:54:56;;;;;;;8.35;4.80;;;;;;;13.58;64.28;93796.44;2064662;69;20153;-79
2024/02/17 10:57:22;;;;;;;9.73;4.32;;;;;;;13.93;63.69;93805.88;2065153;69;20141;-79
2024/02/17 10:59:56;;;;;;;7.35;4.40;;;;;;;14.24;62.73;93802.94;2065023;69;20322;-78
2024/02/17 11:02:27;;;;;;;8.57;4.75;;;;;;;14.44;64.04;93799.94;2061856;69;20605;-79
2024/02/17 11:04:54;;;;;;;6.80;4.40;;;;;;;14.79;62.91;93810.66;2065054;69;20631;-78
2024/02/17 11:11:25;;;;;;;7.85;4.55;;;;;;;15.30;60.31;93802.44;2065075;69;20186;-78
2024/02/17 11:13:51;;;;;;;11.65;4.82;;;;;;;15.27;59.84;93809.34;2065094;69;20157;-77
2024/02/17 11:16:19;;;;;;;10.88;4.30;;;;;;;15.84;57.96;93810.69;2065087;69;20141;-77
2024/02/17 11:18:54;;;;;;;10.20;4.30;;;;;;;15.67;58.13;93803.31;2065174;69;20221;-78
2024/02/17 11:21:37;;;;;;;9.13;3.90;;;;;;;15.37;59.44;93804.28;2067833;69;20161;-79
2024/02/17 11:24:06;;;;;;;10.95;5.47;;;;;;;15.73;58.47;93798.00;2066327;69;20155;-77
2024/02/17 11:26:32;;;;;;;7.78;4.32;;;;;;;16.08;58.24;93804.94;2065316;69;20144;-77
2024/02/17 11:29:00;;;;;;;6.05;3.10;;;;;;;15.43;58.09;93802.56;2065009;69;20161;-77
2024/02/17 11:35:16;;;;;;;6.47;3.55;;;;;;;15.53;57.99;93810.94;2065243;69;20136;-77
2024/02/17 11:37:42;;;;;;;7.22;4.07;;;;;;;14.79;60.17;93802.13;2065228;69;20663;-78
2024/02/17 11:40:09;;;;;;;7.55;3.60;;;;;;;15.32;58.90;93797.63;2065165;69;20593;-78
2024/02/17 11:42:36;;;;;;;5.55;3.53;;;;;;;15.47;58.66;93791.44;2065330;69;20156;-78
2024/02/17 11:45:03;;;;;;;5.32;3.05;;;;;;;15.61;58.43;93791.56;2065617;69;20171;-78
2024/02/17 11:47:30;;;;;;;6.25;3.47;;;;;;;15.60;57.93;93798.59;2065491;69;20202;-78
2024/02/17 11:50:12;;;;;;;5.43;3.35;;;;;;;15.09;58.32;93800.47;2065541;69;20230;-78
2024/02/17 11:52:42;;;;;;;4.85;3.45;;;;;;;14.32;61.11;93785.72;2065678;69;20145;-79
2024/02/17 11:55:12;;;;;;;5.65;3.70;;;;;;;14.81;60.32;93793.78;2065648;69;20132;-78
2024/02/17 11:57:42;;;;;;;6.25;3.70;;;;;;;14.57;60.79;93807.13;2065653;69;20133;-78
2024/02/17 12:00:11;;;;;;;7.57;4.10;;;;;;;14.66;61.19;93800.63;2065631;69;20267;-78
2024/02/17 12:02:43;;;;;;;7.63;3.60;;;;;;;15.04;60.43;93805.16;2065596;69;20156;-77
2024/02/17 12:05:09;;;;;;;8.65;3.65;;;;;;;14.97;60.32;93795.50;2065781;69;20234;-77
2024/02/17 12:07:35;;;;;;;8.25;3.75;;;;;;;14.59;61.05;93784.59;2065185;69;20145;-77
2024/02/17 12:10:00;;;;;;;6.43;3.75;;;;;;;14.47;62.96;93790.94;2065653;69;20161;-78
2024/02/17 12:12:26;;;;;;;8.95;4.57;;;;;;;14.42;62.16;93792.03;2065612;69;20141;-77
2024/02/17 12:14:52;;;;;;;7.40;4.40;;;;;;;15.09;61.81;93789.13;2065625;69;20510;-77
2024/02/17 12:17:19;;;;;;;10.32;4.40;;;;;;;15.58;60.46;93784.31;2065590;69;20139;-77
2024/02/17 12:19:45;;;;;;;10.18;5.05;;;;;;;15.65;60.18;93782.56;2065588;69;20516;-78
2024/02/17 12:22:11;;;;;;;7.72;4.60;;;;;;;15.61;59.68;93782.31;2065573;69;20149;-78
2024/02/17 12:24:37;;;;;;;8.60;4.30;;;;;;;15.07;60.88;93786.16;2065556;69;20564;-78
2024/02/17 12:27:04;;;;;;;8.48;4.55;;;;;;;15.33;60.73;93787.03;2065708;69;20141;-77